Altona, NY (12910)

12:35 PM EDT on September 03, 2015 (GMT -0400)
Ellenburg Depot | | Change Station
CLOSE
Current Station
Personal Weather Station
Location: Ellenburg Depot, NY
Elevation: 1000 ft
Nearby Weather Stations

Elev 1000 ft 44.91 °N, 73.82 °W | Updated 5 seconds ago

Overcast
Overcast
74.0 °F
Feels Like 73 °F
N
8.0
Wind Variable Wind from NE
Gusts 8.0 mph

Today
High -- | Low -- °F
--% Chance of Precip.
Yesterday
High -- | Low -- °F
Precip. -- in
6:18 AM 7:28 PM
Waning Gibbous, 69% visible
Pressure 29.92 in
Visibility 8.0 miles
Clouds Scattered Clouds 2000 ft
Scattered Clouds 2600 ft
Scattered Clouds 4900 ft
Heat Index 73 °F
Dew Point 70 °F
Humidity 88%
Rainfall 0.36 in
Snow Depth Not available.
UV 6 out of 12
Pollen 7.70 out of 12
Air Quality Not available.
Flu Activity Not available.
METAR KPBG 031553Z AUTO 03009KT 8SM SCT020 SCT026 SCT049 26/21 A2992 RMK AO2 SLP130 T02610211
Pressure 29.92 in
Visibility 8.0 miles
Clouds Scattered Clouds 2000 ft
Scattered Clouds 2600 ft
Scattered Clouds 4900 ft
Heat Index 73 °F
Dew Point 70 °F
Humidity 88%
Rainfall 0.36 in
Snow Depth Not available.
UV 6 out of 12
Pollen 7.70 out of 12
Air Quality Not available.
Flu Activity Not available.
METAR KPBG 031553Z AUTO 03009KT 8SM SCT020 SCT026 SCT049 26/21 A2992 RMK AO2 SLP130 T02610211

10-Day Weather Forecast

×

Almanac

Astronomy

Sep. 03, 2015 Rise Set
Actual Time
Civil Twilight
Nautical Twilight
Astronomical Twilight
Moon
Length of Visible Light
Length of Day
Tomorrow will be .
, % of the Moon is Illuminated

Today's Extremes

State Highs State Lows

Community

WunderPhotos

Upload Photos

1,851,988 photos uploaded!

WunderBlogs® & News

Nearby

Air Quality

  Air Quality AQ Index Pollutant
Not available.

Snow Depth

Station Depth Elevation

Earthquake Activity

City Distance Mag. Time & Date
Minimum magnitude displayed is 2.5.

Coastal Water Temperatures

Place Temperature

Stations

Nearby Weather Stations

Station Location Temp. Windchill Dew Point Humidity Wind Precip. Elev Updated Type